Charter Quote
Worldwide +1-877-727-2538 Call
Select Language Lang
SAFETY RELIABILITY EXPERIENCE

Private Jet Charter Services - Baita Airport (ZBHH)

Paramount Business Jets offers private jet charter flights and luxury airliner charters to and from Baita Airport.

AIRPORT INFORMATION
ICAOZBHH
IATAHET
LOCATIONHuhhot, China
FACILITY TYPEAIRPORT

At Paramount Business Jets you can hire chartered private jets to and from Baita Airport with as little as 4 hours of notice. All flights booked via Paramount Business Jets are operated by certified direct air carriers that meet and exceed the FAA part 135 and 121 protocol or a foreign equivalent safety authority. Furthermore, Paramount Business Jets subscribes to ARGUS for their third party safety checks of operators, aircraft, and crews prior each and every flight to and from Baita Airport and worldwide.

  • Quote a trip using Baita Airport or call us 24/7 - 365 days a year at +1-877-727-2538.
Questions? Call +1-877-727-2538

METAR Weather Data at Baita Airport, ZBHH, HET

STATIONZBHH
OBSERVEDTue Jul 16, 04:00 UTC
NOWTue Jul 16, 04:38 UTC
AGE38 min ago
WINDESE at 4 mph
VISIBILITY16 miles
CONDITIONSlight rain
CLOUDSscattered clouds
TEMP70°F (21°C)
DEWPT64°F (18°C)
HUMIDITY83%
BAROMETER1012 hPa (29.88 in Hg)
METARZBHH 160400Z 12002MPS 040V160 9999 -RA FEW030 SCT040 21/18 Q1012 NOSIG

Call us on +1-877-727-2538 (24 Hours) to Hire a Private Jet or Get a Quick Quote.

Find Airports Near any Location

Processing
...